sensor_id;sensor_type;location;lat;lon;timestamp;P1;durP1;ratioP1;P2;durP2;ratioP2
7495;SDS011;3789;47.064;15.482;2023-02-28T00:01:23;8.57;;;6.97;;
7495;SDS011;3789;47.064;15.482;2023-02-28T00:03:51;9.57;;;6.63;;
7495;SDS011;3789;47.064;15.482;2023-02-28T00:06:19;7.97;;;7.20;;
7495;SDS011;3789;47.064;15.482;2023-02-28T00:08:47;8.13;;;6.23;;
7495;SDS011;3789;47.064;15.482;2023-02-28T00:11:15;7.30;;;6.60;;
7495;SDS011;3789;47.064;15.482;2023-02-28T00:13:44;7.77;;;6.27;;
7495;SDS011;3789;47.064;15.482;2023-02-28T00:16:17;9.37;;;7.47;;
7495;SDS011;3789;47.064;15.482;2023-02-28T00:18:47;9.13;;;7.30;;
7495;SDS011;3789;47.064;15.482;2023-02-28T00:21:15;9.70;;;7.73;;
7495;SDS011;3789;47.064;15.482;2023-02-28T00:23:44;7.90;;;6.73;;
7495;SDS011;3789;47.064;15.482;2023-02-28T00:26:11;8.17;;;7.03;;
7495;SDS011;3789;47.064;15.482;2023-02-28T00:28:38;8.27;;;7.27;;
7495;SDS011;3789;47.064;15.482;2023-02-28T00:31:06;7.80;;;6.73;;
7495;SDS011;3789;47.064;15.482;2023-02-28T00:33:33;8.50;;;6.73;;
7495;SDS011;3789;47.064;15.482;2023-02-28T00:36:03;6.80;;;6.10;;
7495;SDS011;3789;47.064;15.482;2023-02-28T00:38:33;9.13;;;6.97;;
7495;SDS011;3789;47.064;15.482;2023-02-28T00:41:00;6.70;;;6.00;;
7495;SDS011;3789;47.064;15.482;2023-02-28T00:43:35;8.63;;;6.80;;
7495;SDS011;3789;47.064;15.482;2023-02-28T00:46:04;6.73;;;6.13;;
7495;SDS011;3789;47.064;15.482;2023-02-28T00:48:32;7.63;;;6.73;;
7495;SDS011;3789;47.064;15.482;2023-02-28T00:50:59;7.30;;;6.63;;
7495;SDS011;3789;47.064;15.482;2023-02-28T00:53:27;8.40;;;6.83;;
7495;SDS011;3789;47.064;15.482;2023-02-28T00:55:56;8.67;;;7.17;;
7495;SDS011;3789;47.064;15.482;2023-02-28T00:58:23;9.47;;;6.87;;
7495;SDS011;3789;47.064;15.482;2023-02-28T01:00:51;6.73;;;6.03;;
7495;SDS011;3789;47.064;15.482;2023-02-28T01:03:19;9.43;;;7.13;;
7495;SDS011;3789;47.064;15.482;2023-02-28T01:09:19;8.70;;;6.90;;
7495;SDS011;3789;47.064;15.482;2023-02-28T01:11:46;8.50;;;7.30;;
7495;SDS011;3789;47.064;15.482;2023-02-28T01:14:15;7.50;;;6.80;;
7495;SDS011;3789;47.064;15.482;2023-02-28T01:16:43;6.97;;;6.27;;
7495;SDS011;3789;47.064;15.482;2023-02-28T01:19:10;9.37;;;6.27;;
7495;SDS011;3789;47.064;15.482;2023-02-28T01:21:38;7.20;;;6.50;;
7495;SDS011;3789;47.064;15.482;2023-02-28T01:24:05;7.67;;;6.47;;
7495;SDS011;3789;47.064;15.482;2023-02-28T01:26:33;8.40;;;6.70;;
7495;SDS011;3789;47.064;15.482;2023-02-28T01:29:00;9.73;;;7.17;;
7495;SDS011;3789;47.064;15.482;2023-02-28T01:31:28;8.10;;;6.80;;
7495;SDS011;3789;47.064;15.482;2023-02-28T01:33:55;6.53;;;5.93;;
7495;SDS011;3789;47.064;15.482;2023-02-28T01:36:23;7.50;;;6.70;;
7495;SDS011;3789;47.064;15.482;2023-02-28T01:38:51;8.63;;;7.00;;
7495;SDS011;3789;47.064;15.482;2023-02-28T01:41:20;6.90;;;6.20;;
7495;SDS011;3789;47.064;15.482;2023-02-28T01:46:33;10.43;;;6.77;;
7495;SDS011;3789;47.064;15.482;2023-02-28T01:49:09;7.63;;;6.27;;
7495;SDS011;3789;47.064;15.482;2023-02-28T01:51:42;6.97;;;6.00;;
7495;SDS011;3789;47.064;15.482;2023-02-28T01:54:29;6.97;;;6.27;;
7495;SDS011;3789;47.064;15.482;2023-02-28T01:57:05;7.13;;;6.43;;
7495;SDS011;3789;47.064;15.482;2023-02-28T01:59:38;7.23;;;6.50;;
7495;SDS011;3789;47.064;15.482;2023-02-28T02:02:19;7.17;;;6.20;;
7495;SDS011;3789;47.064;15.482;2023-02-28T02:04:56;7.47;;;6.77;;
7495;SDS011;3789;47.064;15.482;2023-02-28T02:07:35;7.00;;;6.40;;
7495;SDS011;3789;47.064;15.482;2023-02-28T02:12:56;7.90;;;6.47;;
7495;SDS011;3789;47.064;15.482;2023-02-28T02:18:41;9.67;;;6.83;;
7495;SDS011;3789;47.064;15.482;2023-02-28T02:30:39;8.07;;;6.40;;
7495;SDS011;3789;47.064;15.482;2023-02-28T02:36:18;6.80;;;6.10;;
7495;SDS011;3789;47.064;15.482;2023-02-28T02:39:10;7.73;;;6.93;;
7495;SDS011;3789;47.064;15.482;2023-02-28T02:42:14;6.83;;;6.20;;
7495;SDS011;3789;47.064;15.482;2023-02-28T02:44:58;8.80;;;7.10;;
7495;SDS011;3789;47.064;15.482;2023-02-28T02:47:49;7.57;;;6.73;;
7495;SDS011;3789;47.064;15.482;2023-02-28T02:50:19;7.67;;;6.87;;
7495;SDS011;3789;47.064;15.482;2023-02-28T02:53:11;7.43;;;6.57;;
7495;SDS011;3789;47.064;15.482;2023-02-28T02:55:47;7.77;;;6.73;;
7495;SDS011;3789;47.064;15.482;2023-02-28T02:58:38;9.83;;;6.93;;
7495;SDS011;3789;47.064;15.482;2023-02-28T03:01:10;8.20;;;6.53;;
7495;SDS011;3789;47.064;15.482;2023-02-28T03:03:57;7.63;;;5.70;;
7495;SDS011;3789;47.064;15.482;2023-02-28T03:06:28;6.83;;;6.10;;
7495;SDS011;3789;47.064;15.482;2023-02-28T03:09:07;6.60;;;5.97;;
7495;SDS011;3789;47.064;15.482;2023-02-28T03:11:57;7.07;;;6.40;;
7495;SDS011;3789;47.064;15.482;2023-02-28T03:14:55;9.33;;;7.10;;
7495;SDS011;3789;47.064;15.482;2023-02-28T03:17:46;7.87;;;6.40;;
7495;SDS011;3789;47.064;15.482;2023-02-28T03:25:59;7.57;;;6.87;;
7495;SDS011;3789;47.064;15.482;2023-02-28T03:33:47;8.33;;;7.53;;
7495;SDS011;3789;47.064;15.482;2023-02-28T03:36:37;8.60;;;7.33;;
7495;SDS011;3789;47.064;15.482;2023-02-28T03:39:31;8.00;;;7.20;;
7495;SDS011;3789;47.064;15.482;2023-02-28T03:42:14;9.77;;;7.83;;
7495;SDS011;3789;47.064;15.482;2023-02-28T03:44:51;9.50;;;8.50;;
7495;SDS011;3789;47.064;15.482;2023-02-28T03:47:24;8.53;;;7.70;;
7495;SDS011;3789;47.064;15.482;2023-02-28T03:49:57;8.70;;;7.90;;
7495;SDS011;3789;47.064;15.482;2023-02-28T03:53:08;8.10;;;7.40;;
7495;SDS011;3789;47.064;15.482;2023-02-28T03:55:47;9.57;;;8.20;;
7495;SDS011;3789;47.064;15.482;2023-02-28T04:01:24;8.53;;;7.70;;
7495;SDS011;3789;47.064;15.482;2023-02-28T04:04:01;8.83;;;7.93;;
7495;SDS011;3789;47.064;15.482;2023-02-28T04:06:44;13.23;;;8.50;;
7495;SDS011;3789;47.064;15.482;2023-02-28T04:09:12;8.87;;;7.60;;
7495;SDS011;3789;47.064;15.482;2023-02-28T04:11:50;8.67;;;7.87;;
7495;SDS011;3789;47.064;15.482;2023-02-28T04:14:18;9.07;;;8.27;;
7495;SDS011;3789;47.064;15.482;2023-02-28T04:16:48;9.77;;;8.77;;
7495;SDS011;3789;47.064;15.482;2023-02-28T04:19:20;8.83;;;7.93;;
7495;SDS011;3789;47.064;15.482;2023-02-28T04:21:59;9.73;;;8.57;;
7495;SDS011;3789;47.064;15.482;2023-02-28T04:24:39;9.70;;;8.80;;
7495;SDS011;3789;47.064;15.482;2023-02-28T04:27:10;10.73;;;8.93;;
7495;SDS011;3789;47.064;15.482;2023-02-28T04:29:37;10.57;;;7.90;;
7495;SDS011;3789;47.064;15.482;2023-02-28T04:32:05;10.60;;;7.73;;
7495;SDS011;3789;47.064;15.482;2023-02-28T04:34:32;8.60;;;7.60;;
7495;SDS011;3789;47.064;15.482;2023-02-28T04:36:59;10.43;;;7.50;;
7495;SDS011;3789;47.064;15.482;2023-02-28T04:39:39;11.73;;;8.17;;
7495;SDS011;3789;47.064;15.482;2023-02-28T04:42:07;10.77;;;8.00;;
7495;SDS011;3789;47.064;15.482;2023-02-28T04:44:34;9.70;;;7.87;;
7495;SDS011;3789;47.064;15.482;2023-02-28T04:47:01;10.63;;;7.10;;
7495;SDS011;3789;47.064;15.482;2023-02-28T04:49:34;8.83;;;7.93;;
7495;SDS011;3789;47.064;15.482;2023-02-28T04:52:02;9.73;;;7.87;;
7495;SDS011;3789;47.064;15.482;2023-02-28T04:54:29;12.37;;;8.70;;
7495;SDS011;3789;47.064;15.482;2023-02-28T04:57:16;14.00;;;9.80;;
7495;SDS011;3789;47.064;15.482;2023-02-28T04:59:52;12.00;;;8.57;;
7495;SDS011;3789;47.064;15.482;2023-02-28T05:02:19;10.00;;;7.47;;
7495;SDS011;3789;47.064;15.482;2023-02-28T05:04:47;13.97;;;7.03;;
7495;SDS011;3789;47.064;15.482;2023-02-28T05:07:17;10.93;;;7.93;;
7495;SDS011;3789;47.064;15.482;2023-02-28T05:09:48;10.77;;;8.47;;
7495;SDS011;3789;47.064;15.482;2023-02-28T05:12:24;11.90;;;8.97;;
7495;SDS011;3789;47.064;15.482;2023-02-28T05:14:52;15.70;;;11.07;;
7495;SDS011;3789;47.064;15.482;2023-02-28T05:17:25;10.43;;;8.93;;
7495;SDS011;3789;47.064;15.482;2023-02-28T05:20:05;9.87;;;7.93;;
7495;SDS011;3789;47.064;15.482;2023-02-28T05:22:45;9.97;;;7.97;;
7495;SDS011;3789;47.064;15.482;2023-02-28T05:25:22;11.67;;;9.97;;
7495;SDS011;3789;47.064;15.482;2023-02-28T05:27:50;14.30;;;10.43;;
7495;SDS011;3789;47.064;15.482;2023-02-28T05:30:17;11.43;;;9.23;;
7495;SDS011;3789;47.064;15.482;2023-02-28T05:32:49;12.80;;;9.73;;
7495;SDS011;3789;47.064;15.482;2023-02-28T05:35:17;12.20;;;9.03;;
7495;SDS011;3789;47.064;15.482;2023-02-28T05:38:03;10.47;;;8.63;;
7495;SDS011;3789;47.064;15.482;2023-02-28T05:40:30;9.03;;;8.03;;
7495;SDS011;3789;47.064;15.482;2023-02-28T05:43:01;11.60;;;9.57;;
7495;SDS011;3789;47.064;15.482;2023-02-28T05:45:43;12.93;;;9.50;;
7495;SDS011;3789;47.064;15.482;2023-02-28T05:48:13;13.30;;;10.00;;
7495;SDS011;3789;47.064;15.482;2023-02-28T05:51:08;15.63;;;10.37;;
7495;SDS011;3789;47.064;15.482;2023-02-28T05:53:41;13.07;;;10.17;;
7495;SDS011;3789;47.064;15.482;2023-02-28T05:56:12;14.20;;;10.67;;
7495;SDS011;3789;47.064;15.482;2023-02-28T05:58:40;15.43;;;11.67;;
7495;SDS011;3789;47.064;15.482;2023-02-28T06:01:23;17.10;;;12.27;;
7495;SDS011;3789;47.064;15.482;2023-02-28T06:03:59;15.93;;;11.80;;
7495;SDS011;3789;47.064;15.482;2023-02-28T06:06:27;14.77;;;10.93;;
7495;SDS011;3789;47.064;15.482;2023-02-28T06:08:56;14.67;;;10.93;;
7495;SDS011;3789;47.064;15.482;2023-02-28T06:11:23;16.27;;;9.53;;
7495;SDS011;3789;47.064;15.482;2023-02-28T06:14:03;14.93;;;10.90;;
7495;SDS011;3789;47.064;15.482;2023-02-28T06:16:34;15.37;;;10.37;;
7495;SDS011;3789;47.064;15.482;2023-02-28T06:19:20;15.93;;;11.07;;
7495;SDS011;3789;47.064;15.482;2023-02-28T06:21:52;14.90;;;10.63;;
7495;SDS011;3789;47.064;15.482;2023-02-28T06:24:32;14.80;;;10.23;;
7495;SDS011;3789;47.064;15.482;2023-02-28T06:27:02;13.97;;;10.03;;
7495;SDS011;3789;47.064;15.482;2023-02-28T06:29:32;12.30;;;9.63;;
7495;SDS011;3789;47.064;15.482;2023-02-28T06:32:00;12.27;;;9.27;;
7495;SDS011;3789;47.064;15.482;2023-02-28T06:34:28;15.37;;;9.87;;
7495;SDS011;3789;47.064;15.482;2023-02-28T06:36:55;13.97;;;9.90;;
7495;SDS011;3789;47.064;15.482;2023-02-28T06:39:22;13.00;;;9.40;;
7495;SDS011;3789;47.064;15.482;2023-02-28T06:45:13;10.67;;;9.40;;
7495;SDS011;3789;47.064;15.482;2023-02-28T06:47:47;12.90;;;9.97;;
7495;SDS011;3789;47.064;15.482;2023-02-28T06:50:18;15.57;;;9.00;;
7495;SDS011;3789;47.064;15.482;2023-02-28T06:52:56;11.63;;;8.90;;
7495;SDS011;3789;47.064;15.482;2023-02-28T06:55:53;13.47;;;9.77;;
7495;SDS011;3789;47.064;15.482;2023-02-28T06:58:24;15.87;;;9.40;;
7495;SDS011;3789;47.064;15.482;2023-02-28T07:00:51;13.77;;;9.67;;
7495;SDS011;3789;47.064;15.482;2023-02-28T07:03:25;13.20;;;9.00;;
7495;SDS011;3789;47.064;15.482;2023-02-28T07:05:59;13.53;;;9.37;;
7495;SDS011;3789;47.064;15.482;2023-02-28T07:08:30;14.17;;;9.23;;
7495;SDS011;3789;47.064;15.482;2023-02-28T07:10:58;14.43;;;9.83;;
7495;SDS011;3789;47.064;15.482;2023-02-28T07:13:28;10.63;;;8.83;;
7495;SDS011;3789;47.064;15.482;2023-02-28T07:15:56;11.47;;;9.30;;
7495;SDS011;3789;47.064;15.482;2023-02-28T07:18:32;12.17;;;9.20;;
7495;SDS011;3789;47.064;15.482;2023-02-28T07:21:06;12.47;;;9.23;;
7495;SDS011;3789;47.064;15.482;2023-02-28T07:23:45;13.63;;;9.23;;
7495;SDS011;3789;47.064;15.482;2023-02-28T07:26:13;12.87;;;9.57;;
7495;SDS011;3789;47.064;15.482;2023-02-28T07:28:46;14.40;;;9.63;;
7495;SDS011;3789;47.064;15.482;2023-02-28T07:31:27;12.20;;;9.63;;
7495;SDS011;3789;47.064;15.482;2023-02-28T07:33:54;11.47;;;9.63;;
7495;SDS011;3789;47.064;15.482;2023-02-28T07:36:22;13.93;;;10.40;;
7495;SDS011;3789;47.064;15.482;2023-02-28T07:38:49;13.50;;;10.10;;
7495;SDS011;3789;47.064;15.482;2023-02-28T07:41:18;11.00;;;9.47;;
7495;SDS011;3789;47.064;15.482;2023-02-28T07:43:46;13.70;;;9.73;;
7495;SDS011;3789;47.064;15.482;2023-02-28T07:46:15;13.03;;;9.87;;
7495;SDS011;3789;47.064;15.482;2023-02-28T07:48:44;15.47;;;10.23;;
7495;SDS011;3789;47.064;15.482;2023-02-28T07:51:11;15.60;;;11.03;;
7495;SDS011;3789;47.064;15.482;2023-02-28T07:53:38;12.97;;;9.50;;
7495;SDS011;3789;47.064;15.482;2023-02-28T07:56:06;13.23;;;9.63;;
7495;SDS011;3789;47.064;15.482;2023-02-28T07:58:34;14.97;;;9.97;;
7495;SDS011;3789;47.064;15.482;2023-02-28T08:01:05;14.67;;;10.43;;
7495;SDS011;3789;47.064;15.482;2023-02-28T08:03:34;14.33;;;9.23;;
7495;SDS011;3789;47.064;15.482;2023-02-28T08:06:05;12.73;;;9.47;;
7495;SDS011;3789;47.064;15.482;2023-02-28T08:08:34;11.30;;;8.93;;
7495;SDS011;3789;47.064;15.482;2023-02-28T08:11:02;12.57;;;9.63;;
7495;SDS011;3789;47.064;15.482;2023-02-28T08:13:30;14.13;;;9.13;;
7495;SDS011;3789;47.064;15.482;2023-02-28T08:15:58;12.70;;;9.40;;
7495;SDS011;3789;47.064;15.482;2023-02-28T08:18:27;13.10;;;9.83;;
7495;SDS011;3789;47.064;15.482;2023-02-28T08:20:55;13.63;;;9.80;;
7495;SDS011;3789;47.064;15.482;2023-02-28T08:23:23;11.73;;;9.07;;
7495;SDS011;3789;47.064;15.482;2023-02-28T08:25:54;15.57;;;9.20;;
7495;SDS011;3789;47.064;15.482;2023-02-28T08:28:22;13.50;;;9.80;;
7495;SDS011;3789;47.064;15.482;2023-02-28T08:30:52;14.63;;;9.53;;
7495;SDS011;3789;47.064;15.482;2023-02-28T08:33:22;12.77;;;9.47;;
7495;SDS011;3789;47.064;15.482;2023-02-28T08:35:54;11.40;;;9.03;;
7495;SDS011;3789;47.064;15.482;2023-02-28T08:38:22;12.80;;;9.40;;
7495;SDS011;3789;47.064;15.482;2023-02-28T08:40:49;11.73;;;8.87;;
7495;SDS011;3789;47.064;15.482;2023-02-28T08:43:24;12.37;;;9.63;;
7495;SDS011;3789;47.064;15.482;2023-02-28T08:45:52;13.87;;;10.07;;
7495;SDS011;3789;47.064;15.482;2023-02-28T08:48:20;13.13;;;9.97;;
7495;SDS011;3789;47.064;15.482;2023-02-28T08:50:57;14.13;;;9.60;;
7495;SDS011;3789;47.064;15.482;2023-02-28T08:53:33;12.43;;;9.53;;
7495;SDS011;3789;47.064;15.482;2023-02-28T08:58:48;11.90;;;9.47;;
7495;SDS011;3789;47.064;15.482;2023-02-28T09:01:17;11.53;;;9.13;;
7495;SDS011;3789;47.064;15.482;2023-02-28T09:03:47;11.33;;;8.83;;
7495;SDS011;3789;47.064;15.482;2023-02-28T09:06:16;15.60;;;12.83;;
7495;SDS011;3789;47.064;15.482;2023-02-28T09:08:44;14.73;;;11.63;;
7495;SDS011;3789;47.064;15.482;2023-02-28T09:11:12;15.63;;;10.83;;
7495;SDS011;3789;47.064;15.482;2023-02-28T09:13:40;13.77;;;11.20;;
7495;SDS011;3789;47.064;15.482;2023-02-28T09:16:08;13.93;;;9.37;;
7495;SDS011;3789;47.064;15.482;2023-02-28T09:18:38;14.80;;;10.40;;
7495;SDS011;3789;47.064;15.482;2023-02-28T09:21:08;14.20;;;10.17;;
7495;SDS011;3789;47.064;15.482;2023-02-28T09:23:44;16.77;;;9.77;;
7495;SDS011;3789;47.064;15.482;2023-02-28T09:26:13;12.43;;;10.20;;
7495;SDS011;3789;47.064;15.482;2023-02-28T09:28:45;11.80;;;9.70;;
7495;SDS011;3789;47.064;15.482;2023-02-28T09:31:13;12.77;;;9.57;;
7495;SDS011;3789;47.064;15.482;2023-02-28T09:33:43;14.80;;;9.97;;
7495;SDS011;3789;47.064;15.482;2023-02-28T09:36:10;11.53;;;9.47;;
7495;SDS011;3789;47.064;15.482;2023-02-28T09:38:37;14.70;;;10.23;;
7495;SDS011;3789;47.064;15.482;2023-02-28T09:41:10;13.60;;;10.03;;
7495;SDS011;3789;47.064;15.482;2023-02-28T09:43:47;13.70;;;10.30;;
7495;SDS011;3789;47.064;15.482;2023-02-28T09:46:38;13.60;;;10.17;;
7495;SDS011;3789;47.064;15.482;2023-02-28T09:49:14;12.77;;;9.57;;
7495;SDS011;3789;47.064;15.482;2023-02-28T09:54:27;15.13;;;9.40;;
7495;SDS011;3789;47.064;15.482;2023-02-28T09:56:58;12.67;;;10.10;;
7495;SDS011;3789;47.064;15.482;2023-02-28T09:59:54;12.97;;;9.70;;
7495;SDS011;3789;47.064;15.482;2023-02-28T10:05:14;15.27;;;11.07;;
7495;SDS011;3789;47.064;15.482;2023-02-28T10:08:50;11.33;;;9.53;;
7495;SDS011;3789;47.064;15.482;2023-02-28T10:11:03;13.90;;;10.07;;
7495;SDS011;3789;47.064;15.482;2023-02-28T10:16:50;12.73;;;9.43;;
7495;SDS011;3789;47.064;15.482;2023-02-28T10:22:27;11.77;;;10.23;;
7495;SDS011;3789;47.064;15.482;2023-02-28T10:24:46;13.53;;;10.43;;
7495;SDS011;3789;47.064;15.482;2023-02-28T10:29:58;15.73;;;10.60;;
7495;SDS011;3789;47.064;15.482;2023-02-28T10:32:28;14.07;;;10.43;;
7495;SDS011;3789;47.064;15.482;2023-02-28T10:37:41;12.17;;;10.07;;
7495;SDS011;3789;47.064;15.482;2023-02-28T10:42:55;14.00;;;10.67;;
7495;SDS011;3789;47.064;15.482;2023-02-28T10:45:53;13.60;;;10.83;;
7495;SDS011;3789;47.064;15.482;2023-02-28T10:48:33;13.47;;;10.33;;
7495;SDS011;3789;47.064;15.482;2023-02-28T10:51:23;14.37;;;10.77;;
7495;SDS011;3789;47.064;15.482;2023-02-28T10:53:51;12.30;;;9.73;;
7495;SDS011;3789;47.064;15.482;2023-02-28T10:56:28;18.13;;;10.37;;
7495;SDS011;3789;47.064;15.482;2023-02-28T10:58:58;10.90;;;9.00;;
7495;SDS011;3789;47.064;15.482;2023-02-28T11:01:35;12.33;;;9.10;;
7495;SDS011;3789;47.064;15.482;2023-02-28T11:04:23;15.60;;;10.73;;
7495;SDS011;3789;47.064;15.482;2023-02-28T11:07:03;12.53;;;10.43;;
7495;SDS011;3789;47.064;15.482;2023-02-28T11:09:56;11.97;;;9.57;;
7495;SDS011;3789;47.064;15.482;2023-02-28T11:12:36;10.70;;;9.07;;
7495;SDS011;3789;47.064;15.482;2023-02-28T11:18:21;12.83;;;9.77;;
7495;SDS011;3789;47.064;15.482;2023-02-28T11:20:54;12.40;;;9.50;;
7495;SDS011;3789;47.064;15.482;2023-02-28T11:23:25;12.50;;;9.90;;
7495;SDS011;3789;47.064;15.482;2023-02-28T11:25:56;14.27;;;10.13;;
7495;SDS011;3789;47.064;15.482;2023-02-28T11:28:33;15.90;;;10.57;;
7495;SDS011;3789;47.064;15.482;2023-02-28T11:33:43;15.73;;;10.77;;
7495;SDS011;3789;47.064;15.482;2023-02-28T11:38:56;13.43;;;9.93;;
7495;SDS011;3789;47.064;15.482;2023-02-28T11:41:34;15.63;;;10.60;;
7495;SDS011;3789;47.064;15.482;2023-02-28T11:53:02;12.03;;;9.47;;
7495;SDS011;3789;47.064;15.482;2023-02-28T11:55:52;14.87;;;10.23;;
7495;SDS011;3789;47.064;15.482;2023-02-28T11:58:30;13.17;;;9.93;;
7495;SDS011;3789;47.064;15.482;2023-02-28T12:01:21;13.13;;;9.27;;
7495;SDS011;3789;47.064;15.482;2023-02-28T12:04:03;16.17;;;11.77;;
7495;SDS011;3789;47.064;15.482;2023-02-28T12:06:36;15.80;;;10.87;;
7495;SDS011;3789;47.064;15.482;2023-02-28T12:17:41;12.27;;;8.50;;
7495;SDS011;3789;47.064;15.482;2023-02-28T12:28:12;23.30;;;14.13;;
7495;SDS011;3789;47.064;15.482;2023-02-28T12:31:02;17.37;;;11.57;;
7495;SDS011;3789;47.064;15.482;2023-02-28T12:33:42;21.97;;;12.10;;
7495;SDS011;3789;47.064;15.482;2023-02-28T12:36:14;16.43;;;12.03;;
7495;SDS011;3789;47.064;15.482;2023-02-28T12:38:49;15.00;;;11.27;;
7495;SDS011;3789;47.064;15.482;2023-02-28T12:41:41;12.67;;;9.53;;
7495;SDS011;3789;47.064;15.482;2023-02-28T12:47:02;14.97;;;10.77;;
7495;SDS011;3789;47.064;15.482;2023-02-28T12:49:33;16.60;;;11.70;;
7495;SDS011;3789;47.064;15.482;2023-02-28T12:52:06;15.73;;;11.10;;
7495;SDS011;3789;47.064;15.482;2023-02-28T12:54:44;15.23;;;11.03;;
7495;SDS011;3789;47.064;15.482;2023-02-28T13:00:13;18.17;;;12.40;;
7495;SDS011;3789;47.064;15.482;2023-02-28T13:08:08;15.40;;;9.83;;
7495;SDS011;3789;47.064;15.482;2023-02-28T13:13:18;18.93;;;12.37;;
7495;SDS011;3789;47.064;15.482;2023-02-28T13:15:57;18.27;;;12.83;;
7495;SDS011;3789;47.064;15.482;2023-02-28T13:21:22;21.53;;;13.37;;
7495;SDS011;3789;47.064;15.482;2023-02-28T13:34:33;10.57;;;7.73;;
7495;SDS011;3789;47.064;15.482;2023-02-28T13:39:52;17.10;;;11.93;;
7495;SDS011;3789;47.064;15.482;2023-02-28T13:47:41;25.20;;;11.37;;
7495;SDS011;3789;47.064;15.482;2023-02-28T14:01:41;16.27;;;11.50;;
7495;SDS011;3789;47.064;15.482;2023-02-28T14:07:28;17.00;;;12.17;;
7495;SDS011;3789;47.064;15.482;2023-02-28T14:10:05;18.73;;;12.83;;
7495;SDS011;3789;47.064;15.482;2023-02-28T14:18:11;11.90;;;9.07;;
7495;SDS011;3789;47.064;15.482;2023-02-28T14:27:38;11.43;;;9.47;;
7495;SDS011;3789;47.064;15.482;2023-02-28T14:32:41;13.97;;;11.83;;
7495;SDS011;3789;47.064;15.482;2023-02-28T14:38:19;16.60;;;10.53;;
7495;SDS011;3789;47.064;15.482;2023-02-28T14:40:52;14.70;;;11.00;;
7495;SDS011;3789;47.064;15.482;2023-02-28T14:43:23;16.87;;;11.20;;
7495;SDS011;3789;47.064;15.482;2023-02-28T14:45:53;18.37;;;10.97;;
7495;SDS011;3789;47.064;15.482;2023-02-28T14:48:25;16.33;;;11.33;;
7495;SDS011;3789;47.064;15.482;2023-02-28T14:50:58;15.97;;;11.50;;
7495;SDS011;3789;47.064;15.482;2023-02-28T14:53:28;15.73;;;11.30;;
7495;SDS011;3789;47.064;15.482;2023-02-28T14:55:57;15.20;;;11.33;;
7495;SDS011;3789;47.064;15.482;2023-02-28T14:58:26;15.87;;;11.10;;
7495;SDS011;3789;47.064;15.482;2023-02-28T15:01:00;14.90;;;11.00;;
7495;SDS011;3789;47.064;15.482;2023-02-28T15:03:34;13.23;;;10.67;;
7495;SDS011;3789;47.064;15.482;2023-02-28T15:06:11;13.17;;;10.13;;
7495;SDS011;3789;47.064;15.482;2023-02-28T15:08:43;13.30;;;11.17;;
7495;SDS011;3789;47.064;15.482;2023-02-28T15:11:16;13.93;;;9.93;;
7495;SDS011;3789;47.064;15.482;2023-02-28T15:13:52;13.33;;;9.60;;
7495;SDS011;3789;47.064;15.482;2023-02-28T15:16:34;17.20;;;11.53;;
7495;SDS011;3789;47.064;15.482;2023-02-28T15:19:20;16.50;;;11.70;;
7495;SDS011;3789;47.064;15.482;2023-02-28T15:21:56;16.30;;;11.27;;
7495;SDS011;3789;47.064;15.482;2023-02-28T15:24:40;15.20;;;11.10;;
7495;SDS011;3789;47.064;15.482;2023-02-28T15:27:14;15.60;;;11.30;;
7495;SDS011;3789;47.064;15.482;2023-02-28T15:29:49;15.60;;;11.43;;
7495;SDS011;3789;47.064;15.482;2023-02-28T15:32:28;17.37;;;12.20;;
7495;SDS011;3789;47.064;15.482;2023-02-28T15:35:24;15.70;;;10.63;;
7495;SDS011;3789;47.064;15.482;2023-02-28T15:37:55;13.57;;;10.73;;
7495;SDS011;3789;47.064;15.482;2023-02-28T15:43:04;16.73;;;11.27;;
7495;SDS011;3789;47.064;15.482;2023-02-28T15:48:26;14.93;;;11.40;;
7495;SDS011;3789;47.064;15.482;2023-02-28T15:51:02;17.10;;;12.43;;
7495;SDS011;3789;47.064;15.482;2023-02-28T15:53:31;15.57;;;11.30;;
7495;SDS011;3789;47.064;15.482;2023-02-28T15:56:04;18.33;;;12.50;;
7495;SDS011;3789;47.064;15.482;2023-02-28T15:58:41;15.37;;;11.30;;
7495;SDS011;3789;47.064;15.482;2023-02-28T16:03:54;15.33;;;11.23;;
7495;SDS011;3789;47.064;15.482;2023-02-28T16:09:02;17.53;;;12.40;;
7495;SDS011;3789;47.064;15.482;2023-02-28T16:11:38;16.27;;;12.27;;
7495;SDS011;3789;47.064;15.482;2023-02-28T16:14:11;18.23;;;12.33;;
7495;SDS011;3789;47.064;15.482;2023-02-28T16:16:46;17.17;;;12.23;;
7495;SDS011;3789;47.064;15.482;2023-02-28T16:19:16;17.50;;;11.67;;
7495;SDS011;3789;47.064;15.482;2023-02-28T16:21:44;18.53;;;11.97;;
7495;SDS011;3789;47.064;15.482;2023-02-28T16:24:12;17.70;;;12.03;;
7495;SDS011;3789;47.064;15.482;2023-02-28T16:26:40;19.47;;;11.70;;
7495;SDS011;3789;47.064;15.482;2023-02-28T16:29:09;16.80;;;11.50;;
7495;SDS011;3789;47.064;15.482;2023-02-28T16:31:46;15.40;;;11.37;;
7495;SDS011;3789;47.064;15.482;2023-02-28T16:34:15;15.53;;;11.83;;
7495;SDS011;3789;47.064;15.482;2023-02-28T16:36:42;16.57;;;11.27;;
7495;SDS011;3789;47.064;15.482;2023-02-28T16:39:14;14.20;;;10.83;;
7495;SDS011;3789;47.064;15.482;2023-02-28T16:41:43;15.07;;;11.27;;
7495;SDS011;3789;47.064;15.482;2023-02-28T16:44:13;15.63;;;11.57;;
7495;SDS011;3789;47.064;15.482;2023-02-28T16:46:50;15.53;;;11.13;;
7495;SDS011;3789;47.064;15.482;2023-02-28T16:49:40;19.43;;;12.50;;
7495;SDS011;3789;47.064;15.482;2023-02-28T16:52:10;16.53;;;12.07;;
7495;SDS011;3789;47.064;15.482;2023-02-28T16:54:39;18.77;;;12.83;;
7495;SDS011;3789;47.064;15.482;2023-02-28T16:57:26;18.10;;;12.10;;
7495;SDS011;3789;47.064;15.482;2023-02-28T16:59:53;17.00;;;12.43;;
7495;SDS011;3789;47.064;15.482;2023-02-28T17:02:20;14.63;;;10.87;;
7495;SDS011;3789;47.064;15.482;2023-02-28T17:04:48;14.63;;;10.77;;
7495;SDS011;3789;47.064;15.482;2023-02-28T17:07:16;14.87;;;11.07;;
7495;SDS011;3789;47.064;15.482;2023-02-28T17:09:44;15.73;;;10.57;;
7495;SDS011;3789;47.064;15.482;2023-02-28T17:12:12;16.63;;;10.70;;
7495;SDS011;3789;47.064;15.482;2023-02-28T17:14:40;13.63;;;10.27;;
7495;SDS011;3789;47.064;15.482;2023-02-28T17:17:09;14.80;;;11.57;;
7495;SDS011;3789;47.064;15.482;2023-02-28T17:19:44;16.00;;;11.70;;
7495;SDS011;3789;47.064;15.482;2023-02-28T17:22:11;18.87;;;13.27;;
7495;SDS011;3789;47.064;15.482;2023-02-28T17:24:39;14.10;;;10.50;;
7495;SDS011;3789;47.064;15.482;2023-02-28T17:27:09;16.50;;;11.00;;
7495;SDS011;3789;47.064;15.482;2023-02-28T17:29:39;16.67;;;11.60;;
7495;SDS011;3789;47.064;15.482;2023-02-28T17:32:06;17.00;;;11.87;;
7495;SDS011;3789;47.064;15.482;2023-02-28T17:34:43;16.97;;;11.80;;
7495;SDS011;3789;47.064;15.482;2023-02-28T17:37:12;17.10;;;12.03;;
7495;SDS011;3789;47.064;15.482;2023-02-28T17:39:40;17.47;;;12.47;;
7495;SDS011;3789;47.064;15.482;2023-02-28T17:42:07;16.60;;;11.97;;
7495;SDS011;3789;47.064;15.482;2023-02-28T17:44:34;16.67;;;11.87;;
7495;SDS011;3789;47.064;15.482;2023-02-28T17:47:02;16.33;;;11.83;;
7495;SDS011;3789;47.064;15.482;2023-02-28T17:49:29;16.40;;;11.97;;
7495;SDS011;3789;47.064;15.482;2023-02-28T17:51:56;16.03;;;12.00;;
7495;SDS011;3789;47.064;15.482;2023-02-28T17:54:23;18.37;;;12.60;;
7495;SDS011;3789;47.064;15.482;2023-02-28T17:56:51;15.13;;;10.60;;
7495;SDS011;3789;47.064;15.482;2023-02-28T17:59:18;18.13;;;12.20;;
7495;SDS011;3789;47.064;15.482;2023-02-28T18:01:45;16.00;;;11.13;;
7495;SDS011;3789;47.064;15.482;2023-02-28T18:04:13;14.17;;;10.63;;
7495;SDS011;3789;47.064;15.482;2023-02-28T18:06:40;16.57;;;11.50;;
7495;SDS011;3789;47.064;15.482;2023-02-28T18:09:16;16.87;;;11.60;;
7495;SDS011;3789;47.064;15.482;2023-02-28T18:11:44;16.63;;;11.57;;
7495;SDS011;3789;47.064;15.482;2023-02-28T18:14:11;16.90;;;12.30;;
7495;SDS011;3789;47.064;15.482;2023-02-28T18:16:40;18.20;;;11.90;;
7495;SDS011;3789;47.064;15.482;2023-02-28T18:19:08;18.53;;;13.30;;